createdAt,value
2022-08-07T00:01:44.419Z,12.34
2022-08-07T00:04:16.679Z,12.32
2022-08-07T00:06:52.795Z,12.32
2022-08-07T00:09:22.804Z,12.32
2022-08-07T00:11:55.928Z,12.29
2022-08-07T00:14:31.035Z,12.26
2022-08-07T00:17:02.539Z,12.23
2022-08-07T00:19:59.905Z,12.21
2022-08-07T00:22:34.501Z,12.17
2022-08-07T00:25:06.941Z,12.10
2022-08-07T00:27:52.244Z,12.07
2022-08-07T00:30:28.139Z,12.02
2022-08-07T00:32:58.300Z,11.99
2022-08-07T00:35:29.625Z,11.94
2022-08-07T00:37:59.554Z,11.90
2022-08-07T00:40:39.409Z,11.87
2022-08-07T00:43:58.749Z,11.83
2022-08-07T00:45:59.220Z,11.77
2022-08-07T00:48:30.994Z,11.73
2022-08-07T00:51:02.988Z,11.71
2022-08-07T00:53:38.608Z,11.69
2022-08-07T00:56:15.467Z,11.65
2022-08-07T00:58:47.096Z,11.63
2022-08-07T01:01:20.362Z,11.61
2022-08-07T01:03:55.766Z,11.60
2022-08-07T01:06:30.279Z,11.58
2022-08-07T01:09:01.148Z,11.56
2022-08-07T01:12:23.439Z,11.55
2022-08-07T01:14:21.301Z,11.51
2022-08-07T01:16:59.188Z,11.51
2022-08-07T01:19:32.211Z,11.48
2022-08-07T01:22:03.988Z,11.45
2022-08-07T01:24:37.604Z,11.42
2022-08-07T01:27:06.514Z,11.40
2022-08-07T01:29:48.365Z,11.37
2022-08-07T01:32:19.411Z,11.35
2022-08-07T01:34:51.895Z,11.34
2022-08-07T01:37:22.045Z,11.33
2022-08-07T01:39:50.679Z,11.32
2022-08-07T01:42:38.474Z,11.32
2022-08-07T01:45:16.085Z,11.33
2022-08-07T01:48:18.426Z,11.35
2022-08-07T01:50:40.207Z,11.34
2022-08-07T01:53:21.143Z,11.36
2022-08-07T01:55:56.950Z,11.35
2022-08-07T01:58:33.782Z,11.34
2022-08-07T02:01:25.537Z,11.35
2022-08-07T02:04:08.654Z,11.34
2022-08-07T02:06:39.144Z,11.36
2022-08-07T02:09:51.900Z,11.37
2022-08-07T02:12:17.692Z,11.39
2022-08-07T02:14:51.270Z,11.37
2022-08-07T02:17:27.478Z,11.34
2022-08-07T02:20:07.359Z,11.34
2022-08-07T02:22:47.247Z,11.31
2022-08-07T02:26:30.759Z,11.30
2022-08-07T02:28:25.725Z,11.29
2022-08-07T02:30:56.757Z,11.27
2022-08-07T02:33:41.869Z,11.27
2022-08-07T02:36:28.181Z,11.27
2022-08-07T02:39:16.388Z,11.26
2022-08-07T02:41:55.144Z,11.26
2022-08-07T02:44:34.525Z,11.26
2022-08-07T02:47:06.748Z,11.25
2022-08-07T02:49:58.840Z,11.25
2022-08-07T02:52:30.976Z,11.23
2022-08-07T02:55:27.342Z,11.22
2022-08-07T02:58:03.924Z,11.22
2022-08-07T03:00:39.131Z,11.22
2022-08-07T03:03:13.430Z,11.22
2022-08-07T03:05:42.856Z,11.23
2022-08-07T03:08:12.221Z,11.21
2022-08-07T03:10:47.038Z,11.18
2022-08-07T03:13:19.706Z,11.18
2022-08-07T03:15:56.299Z,11.17
2022-08-07T03:18:34.661Z,11.16
2022-08-07T03:21:08.867Z,11.12
2022-08-07T03:24:20.998Z,11.08
2022-08-07T03:26:33.982Z,11.03
2022-08-07T03:29:10.402Z,10.98
2022-08-07T03:31:42.295Z,10.95
2022-08-07T03:34:18.485Z,10.91
2022-08-07T03:36:53.660Z,10.87
2022-08-07T03:39:56.550Z,10.86
2022-08-07T03:42:13.232Z,10.85
2022-08-07T03:44:47.282Z,10.83
2022-08-07T03:47:22.848Z,10.81
2022-08-07T03:49:52.471Z,10.80
2022-08-07T03:52:26.468Z,10.78
2022-08-07T03:55:06.131Z,10.78
2022-08-07T03:59:05.757Z,10.76
2022-08-07T04:00:29.210Z,10.72
2022-08-07T04:02:59.900Z,10.71
2022-08-07T04:05:40.541Z,10.70
2022-08-07T04:08:16.266Z,10.71
2022-08-07T04:10:54.600Z,10.71
2022-08-07T04:14:33.005Z,10.73
2022-08-07T04:16:31.310Z,10.73
2022-08-07T04:19:04.352Z,10.78
2022-08-07T04:21:58.841Z,10.83
2022-08-07T04:24:34.134Z,10.87
2022-08-07T04:27:20.695Z,10.88
2022-08-07T04:30:01.260Z,10.90
2022-08-07T04:32:35.116Z,10.93
2022-08-07T04:35:05.765Z,10.90
2022-08-07T04:38:00.779Z,10.96
2022-08-07T04:40:30.109Z,11.00
2022-08-07T04:43:01.846Z,11.03
2022-08-07T04:45:52.085Z,11.08
2022-08-07T04:48:44.702Z,11.12
2022-08-07T04:51:27.600Z,11.18
2022-08-07T04:54:06.716Z,11.27
2022-08-07T04:58:12.788Z,11.36
2022-08-07T05:00:11.510Z,11.49
2022-08-07T05:02:33.326Z,11.61
2022-08-07T05:05:11.911Z,11.72
2022-08-07T05:08:07.093Z,11.84
2022-08-07T05:10:42.876Z,11.97
2022-08-07T05:14:56.260Z,12.07
2022-08-07T05:16:11.125Z,12.19
2022-08-07T05:18:48.269Z,12.29
2022-08-07T05:21:58.997Z,12.41
2022-08-07T05:24:17.113Z,12.55
2022-08-07T05:26:47.833Z,12.64
2022-08-07T05:29:19.065Z,12.72
2022-08-07T05:31:52.690Z,12.78
2022-08-07T05:34:26.411Z,12.84
2022-08-07T05:36:57.991Z,12.96
2022-08-07T05:40:17.949Z,13.22
2022-08-07T05:42:33.255Z,13.60
2022-08-07T05:45:14.080Z,14.03
2022-08-07T05:48:02.383Z,14.44
2022-08-07T05:50:33.898Z,14.86
2022-08-07T05:53:04.133Z,15.25
2022-08-07T05:56:03.528Z,15.61
2022-08-07T05:58:36.394Z,15.81
2022-08-07T06:01:10.592Z,15.87
2022-08-07T06:03:56.889Z,15.88
2022-08-07T06:06:32.635Z,15.84
2022-08-07T06:09:04.632Z,15.82
2022-08-07T06:11:34.714Z,15.80
2022-08-07T06:14:12.014Z,15.83
2022-08-07T06:16:50.226Z,15.87
2022-08-07T06:19:57.966Z,15.93
2022-08-07T06:22:14.759Z,15.99
2022-08-07T06:24:57.930Z,16.06
2022-08-07T06:27:44.232Z,16.11
2022-08-07T06:30:32.099Z,16.19
2022-08-07T06:33:10.041Z,16.26
2022-08-07T06:35:47.908Z,16.37
2022-08-07T06:38:33.211Z,16.51
2022-08-07T06:41:13.244Z,16.66
2022-08-07T06:43:46.004Z,16.77
2022-08-07T06:46:15.678Z,16.87
2022-08-07T06:49:00.117Z,16.97
2022-08-07T06:51:34.745Z,17.08
2022-08-07T06:55:29.551Z,17.38
2022-08-07T06:56:58.028Z,17.63
2022-08-07T07:00:13.059Z,17.85
2022-08-07T07:02:48.184Z,17.93
2022-08-07T07:05:12.871Z,17.93
2022-08-07T07:08:00.195Z,17.92
2022-08-07T07:10:33.354Z,18.01
2022-08-07T07:13:13.267Z,18.21
2022-08-07T07:15:51.699Z,18.55
2022-08-07T07:18:47.158Z,18.91
2022-08-07T07:21:19.355Z,19.15
2022-08-07T07:24:05.991Z,19.54
2022-08-07T07:26:40.668Z,19.87
2022-08-07T07:29:40.024Z,20.10
2022-08-07T07:32:09.187Z,20.38
2022-08-07T07:34:44.888Z,20.49
2022-08-07T07:37:22.104Z,20.65
2022-08-07T07:40:14.682Z,20.77
2022-08-07T07:42:47.070Z,20.96
2022-08-07T07:46:36.587Z,21.14
2022-08-07T07:48:35.009Z,21.37
2022-08-07T07:51:08.100Z,21.58
2022-08-07T07:53:51.955Z,21.74
2022-08-07T07:56:30.421Z,22.03
2022-08-07T07:59:02.301Z,22.27
2022-08-07T08:02:02.467Z,22.12
2022-08-07T08:04:25.706Z,21.81
2022-08-07T08:06:57.096Z,21.79
2022-08-07T08:09:33.202Z,21.99
2022-08-07T08:12:50.124Z,22.16
2022-08-07T08:15:11.513Z,22.29
2022-08-07T08:17:57.334Z,22.45
2022-08-07T08:20:31.891Z,22.66
2022-08-07T08:23:19.079Z,22.61
2022-08-07T08:26:08.419Z,22.42
2022-08-07T08:28:45.163Z,22.21
2022-08-07T08:31:22.764Z,21.97
2022-08-07T08:34:02.607Z,21.72
2022-08-07T08:36:35.542Z,21.47
2022-08-07T08:39:05.439Z,21.17
2022-08-07T08:41:57.092Z,20.98
2022-08-07T08:44:44.984Z,20.78
2022-08-07T08:47:27.263Z,20.65
2022-08-07T08:50:06.033Z,20.59
2022-08-07T08:52:51.480Z,20.56
2022-08-07T08:55:53.745Z,20.63
2022-08-07T08:58:28.714Z,20.77
2022-08-07T09:01:15.188Z,20.85
2022-08-07T09:03:57.866Z,20.91
2022-08-07T09:06:48.067Z,20.88
2022-08-07T09:09:36.724Z,20.83
2022-08-07T09:12:31.244Z,20.71
2022-08-07T09:16:24.755Z,20.61
2022-08-07T09:18:28.228Z,20.57
2022-08-07T09:21:58.222Z,20.62
2022-08-07T09:24:32.713Z,20.71
2022-08-07T09:27:19.779Z,20.83
2022-08-07T09:30:04.032Z,20.89
2022-08-07T09:33:16.662Z,20.85
2022-08-07T09:36:02.738Z,20.84
2022-08-07T09:38:50.279Z,20.77
2022-08-07T09:41:43.070Z,20.75
2022-08-07T09:44:58.343Z,20.73
2022-08-07T09:47:57.844Z,20.72
2022-08-07T09:50:35.347Z,20.77
2022-08-07T09:53:08.443Z,20.88
2022-08-07T09:56:03.763Z,20.94
2022-08-07T09:59:21.979Z,20.88
2022-08-07T10:02:24.223Z,20.94
2022-08-07T10:05:29.694Z,21.05
2022-08-07T10:08:56.155Z,21.12
2022-08-07T10:12:00.970Z,21.15
2022-08-07T10:15:15.415Z,21.16
2022-08-07T10:18:08.501Z,21.44
2022-08-07T10:20:54.520Z,21.94
2022-08-07T10:24:06.343Z,22.05
2022-08-07T10:26:53.149Z,21.98
2022-08-07T10:30:06.563Z,21.86
2022-08-07T10:33:17.388Z,22.00
2022-08-07T10:36:11.278Z,22.59
2022-08-07T10:38:52.821Z,22.97
2022-08-07T10:41:51.486Z,23.32
2022-08-07T10:44:38.450Z,23.40
2022-08-07T10:47:26.891Z,23.05
2022-08-07T10:50:11.771Z,22.59
2022-08-07T10:52:56.642Z,22.05
2022-08-07T11:17:45.270Z,19.76
2022-08-07T11:20:22.539Z,19.67
2022-08-07T11:23:02.650Z,19.61
2022-08-07T11:25:42.293Z,19.60
2022-08-07T11:28:21.015Z,19.62
2022-08-07T11:31:00.594Z,19.60
2022-08-07T11:33:58.463Z,19.57
2022-08-07T11:36:49.668Z,19.62
2022-08-07T11:40:01.331Z,19.67
2022-08-07T11:42:46.029Z,19.76
2022-08-07T11:45:35.435Z,19.96
2022-08-07T11:48:38.175Z,20.18
2022-08-07T11:51:44.789Z,20.46
2022-08-07T11:54:29.850Z,20.78
2022-08-07T11:57:16.765Z,21.09
2022-08-07T12:00:19.831Z,21.31
2022-08-07T12:03:46.621Z,21.42
2022-08-07T12:06:44.831Z,21.48
2022-08-07T12:09:32.539Z,21.72
2022-08-07T12:12:11.430Z,21.94
2022-08-07T12:14:56.351Z,22.09
2022-08-07T12:17:41.603Z,22.18
2022-08-07T12:20:37.456Z,22.30
2022-08-07T12:24:05.148Z,22.38
2022-08-07T12:26:34.446Z,22.47
2022-08-07T12:29:13.964Z,22.58
2022-08-07T12:32:03.996Z,22.59
2022-08-07T12:34:37.888Z,22.50
2022-08-07T12:37:27.894Z,22.39
2022-08-07T12:40:01.006Z,22.33
2022-08-07T12:42:32.474Z,22.36
2022-08-07T12:45:08.256Z,22.55
2022-08-07T12:47:49.306Z,22.78
2022-08-07T12:50:39.126Z,23.17
2022-08-07T12:53:19.348Z,23.58
2022-08-07T12:56:04.058Z,23.85
2022-08-07T12:58:43.827Z,24.17
2022-08-07T13:01:32.693Z,24.39
2022-08-07T13:04:32.530Z,24.25
2022-08-07T13:08:12.730Z,24.15
2022-08-07T13:10:51.389Z,23.97
2022-08-07T13:13:48.864Z,23.82
2022-08-07T13:16:32.216Z,23.78
2022-08-07T13:19:18.390Z,23.68
2022-08-07T13:22:19.930Z,23.53
2022-08-07T13:25:02.471Z,23.37
2022-08-07T13:28:12.459Z,23.19
2022-08-07T13:30:40.430Z,23.09
2022-08-07T13:34:31.877Z,23.37
2022-08-07T13:36:22.119Z,23.66
2022-08-07T13:39:12.930Z,23.86
2022-08-07T13:41:55.815Z,24.29
2022-08-07T13:44:34.479Z,24.61
2022-08-07T13:47:09.142Z,24.89
2022-08-07T13:50:32.539Z,25.04
2022-08-07T13:52:40.986Z,25.04
2022-08-07T13:55:19.735Z,24.95
2022-08-07T13:58:27.977Z,24.72
2022-08-07T14:01:09.923Z,24.50
2022-08-07T14:04:08.152Z,24.36
2022-08-07T14:06:33.926Z,24.20
2022-08-07T14:09:04.654Z,24.11
2022-08-07T14:11:53.704Z,24.01
2022-08-07T14:14:40.096Z,23.92
2022-08-07T14:18:12.872Z,23.83
2022-08-07T14:20:42.699Z,23.77
2022-08-07T14:23:10.035Z,23.78
2022-08-07T14:25:47.909Z,23.75
2022-08-07T14:28:19.252Z,23.71
2022-08-07T14:30:52.330Z,23.66
2022-08-07T14:33:23.419Z,23.68
2022-08-07T14:35:58.621Z,23.71
2022-08-07T14:38:33.459Z,23.75
2022-08-07T14:41:06.147Z,23.71
2022-08-07T14:43:57.106Z,23.66
2022-08-07T14:46:33.280Z,23.58
2022-08-07T14:52:04.281Z,23.38
2022-08-07T14:54:42.274Z,23.24
2022-08-07T14:57:18.765Z,23.12
2022-08-07T15:00:05.297Z,23.01
2022-08-07T15:02:37.295Z,22.82
2022-08-07T15:05:20.094Z,22.54
2022-08-07T15:07:52.244Z,22.27
2022-08-07T15:10:26.318Z,22.02
2022-08-07T15:13:00.807Z,21.91
2022-08-07T15:15:38.785Z,21.89
2022-08-07T15:18:34.035Z,21.94
2022-08-07T15:21:58.706Z,22.05
2022-08-07T15:25:14.758Z,22.12
2022-08-07T15:27:04.817Z,22.12
2022-08-07T15:30:04.746Z,22.02
2022-08-07T15:32:39.007Z,21.97
2022-08-07T15:35:16.899Z,21.92
2022-08-07T15:38:04.645Z,21.93
2022-08-07T15:41:00.416Z,21.96
2022-08-07T15:43:56.380Z,22.00
2022-08-07T15:46:32.383Z,22.02
2022-08-07T15:49:15.112Z,22.05
2022-08-07T15:54:39.535Z,21.97
2022-08-07T15:57:39.324Z,22.00
2022-08-07T16:00:06.394Z,21.98
2022-08-07T16:02:46.931Z,21.93
2022-08-07T16:05:23.098Z,21.90
2022-08-07T16:08:33.055Z,21.82
2022-08-07T16:11:25.384Z,21.72
2022-08-07T16:14:09.011Z,21.66
2022-08-07T16:18:02.526Z,21.54
2022-08-07T16:21:04.664Z,21.51
2022-08-07T16:23:58.837Z,21.49
2022-08-07T16:27:00.028Z,21.43
2022-08-07T16:30:29.732Z,21.43
2022-08-07T16:34:02.251Z,21.35
2022-08-07T16:36:04.274Z,21.30
2022-08-07T16:39:02.368Z,21.19
2022-08-07T16:41:54.361Z,21.11
2022-08-07T16:45:14.750Z,21.05
2022-08-07T16:48:13.689Z,21.08
2022-08-07T16:51:21.850Z,21.18
2022-08-07T16:54:33.025Z,21.23
2022-08-07T16:57:28.848Z,21.26
2022-08-07T17:00:29.605Z,21.25
2022-08-07T17:03:58.069Z,21.17
2022-08-07T17:06:31.137Z,21.13
2022-08-07T17:09:14.351Z,21.11
2022-08-07T17:12:35.944Z,21.04
2022-08-07T17:15:05.978Z,20.93
2022-08-07T17:17:50.169Z,20.87
2022-08-07T17:20:32.772Z,20.79
2022-08-07T17:23:11.599Z,20.73
2022-08-07T17:25:57.264Z,20.65
2022-08-07T17:28:38.755Z,20.62
2022-08-07T17:31:26.176Z,20.59
2022-08-07T17:34:33.101Z,20.52
2022-08-07T17:37:09.582Z,20.51
2022-08-07T17:40:03.459Z,20.46
2022-08-07T17:42:59.697Z,20.39
2022-08-07T17:45:55.386Z,20.31
2022-08-07T17:48:33.610Z,20.28
2022-08-07T17:51:11.443Z,20.23
2022-08-07T17:54:02.036Z,20.18
2022-08-07T17:56:49.932Z,20.13
2022-08-07T17:59:26.881Z,20.09
2022-08-07T18:02:14.656Z,20.03
2022-08-07T18:05:20.766Z,19.97
2022-08-07T18:08:23.926Z,19.88
2022-08-07T18:12:07.334Z,19.86
2022-08-07T18:14:01.819Z,19.80
2022-08-07T18:16:35.598Z,19.73
2022-08-07T18:21:08.886Z,19.64
2022-08-07T18:22:33.612Z,19.56
2022-08-07T18:25:19.023Z,19.48
2022-08-07T18:28:35.230Z,19.33
2022-08-07T18:31:18.605Z,19.22
2022-08-07T18:34:33.815Z,19.10
2022-08-07T18:38:59.080Z,18.99
2022-08-07T18:40:42.631Z,18.86
2022-08-07T18:43:42.957Z,18.74
2022-08-07T18:46:27.097Z,18.61
2022-08-07T18:50:31.423Z,18.49
2022-08-07T18:52:34.836Z,18.34
2022-08-07T18:55:42.519Z,18.19
2022-08-07T18:58:52.222Z,18.02
2022-08-07T19:02:32.372Z,17.90
2022-08-07T19:04:54.663Z,17.78
2022-08-07T19:07:51.960Z,17.67
2022-08-07T19:10:32.010Z,17.55
2022-08-07T19:13:26.611Z,17.44
2022-08-07T19:17:01.473Z,17.35
2022-08-07T19:19:01.399Z,17.22
2022-08-07T19:21:44.123Z,17.14
2022-08-07T19:24:31.035Z,17.05
2022-08-07T19:28:29.376Z,17.00
2022-08-07T19:31:06.043Z,16.91
2022-08-07T19:32:59.371Z,16.86
2022-08-07T19:35:33.062Z,16.80
2022-08-07T19:38:15.123Z,16.76
2022-08-07T19:40:51.310Z,16.71
2022-08-07T19:43:50.172Z,16.68
2022-08-07T19:46:15.754Z,16.61
2022-08-07T19:48:57.070Z,16.57
2022-08-07T19:51:51.968Z,16.55
2022-08-07T19:54:33.607Z,16.52
2022-08-07T19:58:00.974Z,16.46
2022-08-07T20:00:08.908Z,16.43
2022-08-07T20:02:52.329Z,16.39
2022-08-07T20:05:28.696Z,16.34
2022-08-07T20:08:03.316Z,16.31
2022-08-07T20:10:55.494Z,16.28
2022-08-07T20:13:38.430Z,16.21
2022-08-07T20:16:32.349Z,16.18
2022-08-07T20:19:05.520Z,16.13
2022-08-07T20:21:42.080Z,16.10
2022-08-07T20:24:21.806Z,16.05
2022-08-07T20:26:54.451Z,16.01
2022-08-07T20:29:49.402Z,15.96
2022-08-07T20:32:27.822Z,15.90
2022-08-07T20:35:16.287Z,15.84
2022-08-07T20:37:58.935Z,15.79
2022-08-07T20:40:34.298Z,15.73
2022-08-07T20:43:14.560Z,15.68
2022-08-07T20:46:26.924Z,15.61
2022-08-07T20:49:54.543Z,15.54
2022-08-07T20:51:35.742Z,15.45
2022-08-07T20:54:08.666Z,15.39
2022-08-07T20:56:48.244Z,15.32
2022-08-07T21:00:05.065Z,15.24
2022-08-07T21:02:34.038Z,15.17
2022-08-07T21:05:10.301Z,15.14
2022-08-07T21:07:49.651Z,15.09
2022-08-07T21:10:25.114Z,15.05
2022-08-07T21:13:01.706Z,15.00
2022-08-07T21:15:58.610Z,14.95
2022-08-07T21:18:31.988Z,14.88
2022-08-07T21:21:04.124Z,14.86
2022-08-07T21:23:50.505Z,14.80
2022-08-07T21:26:43.074Z,14.72
2022-08-07T21:29:18.530Z,14.70
2022-08-07T21:32:47.132Z,14.66
2022-08-07T21:35:00.545Z,14.60
2022-08-07T21:37:58.079Z,14.56
2022-08-07T21:40:38.437Z,14.52
2022-08-07T21:43:14.878Z,14.47
2022-08-07T21:46:08.413Z,14.42
2022-08-07T21:48:55.747Z,14.34
2022-08-07T21:51:51.593Z,14.27
2022-08-07T21:54:36.348Z,14.21
2022-08-07T21:57:31.085Z,14.13
2022-08-07T22:00:23.005Z,14.05
2022-08-07T22:03:06.277Z,13.97
2022-08-07T22:05:48.629Z,13.92
2022-08-07T22:08:23.386Z,13.87
2022-08-07T22:11:01.319Z,13.81
2022-08-07T22:13:51.261Z,13.77
2022-08-07T22:16:45.678Z,13.70
2022-08-07T22:19:23.574Z,13.65
2022-08-07T22:22:18.121Z,13.60
2022-08-07T22:25:10.879Z,13.53
2022-08-07T22:28:08.319Z,13.50
2022-08-07T22:30:52.733Z,13.46
2022-08-07T22:33:53.221Z,13.43
2022-08-07T22:36:35.943Z,13.36
2022-08-07T22:39:24.179Z,13.34
2022-08-07T22:42:18.847Z,13.30
2022-08-07T22:44:58.651Z,13.28
2022-08-07T22:47:58.417Z,13.24
2022-08-07T22:50:55.491Z,13.22
2022-08-07T22:54:07.030Z,13.21
2022-08-07T22:56:36.542Z,13.18
2022-08-07T22:59:52.299Z,13.13
2022-08-07T23:02:47.643Z,13.10
2022-08-07T23:06:06.947Z,13.05
2022-08-07T23:10:04.947Z,13.01
2022-08-07T23:12:20.991Z,12.99
2022-08-07T23:16:06.796Z,12.95
2022-08-07T23:18:32.353Z,12.93
2022-08-07T23:21:16.246Z,12.92
2022-08-07T23:24:17.917Z,12.88
2022-08-07T23:27:02.930Z,12.88
2022-08-07T23:30:38.437Z,12.83
2022-08-07T23:34:34.909Z,12.80
2022-08-07T23:36:46.793Z,12.75
2022-08-07T23:39:46.675Z,12.72
2022-08-07T23:42:35.879Z,12.71
2022-08-07T23:45:33.276Z,12.69
2022-08-07T23:48:27.776Z,12.62
2022-08-07T23:51:04.879Z,12.61
2022-08-07T23:54:05.232Z,12.57
2022-08-07T23:56:53.967Z,12.55
